createdAt,value
2018-10-02T00:01:36.647Z,2.67
2018-10-02T00:04:19.739Z,1.60
2018-10-02T00:07:02.400Z,2.60
2018-10-02T00:09:45.141Z,1.67
2018-10-02T00:12:32.770Z,1.40
2018-10-02T00:15:15.378Z,1.70
2018-10-02T00:17:58.104Z,1.90
2018-10-02T00:20:41.276Z,2.00
2018-10-02T00:23:24.506Z,1.60
2018-10-02T00:26:07.374Z,2.03
2018-10-02T00:28:50.075Z,2.13
2018-10-02T00:31:32.840Z,1.50
2018-10-02T00:34:15.915Z,1.97
2018-10-02T00:36:58.298Z,1.70
2018-10-02T00:39:41.283Z,2.23
2018-10-02T00:42:23.594Z,2.37
2018-10-02T00:45:06.444Z,1.73
2018-10-02T00:47:49.333Z,1.40
2018-10-02T00:50:32.148Z,1.33
2018-10-02T00:53:14.932Z,1.50
2018-10-02T00:55:57.750Z,2.50
2018-10-02T00:58:40.512Z,1.37
2018-10-02T01:01:23.506Z,1.40
2018-10-02T01:04:06.201Z,1.30
2018-10-02T01:06:48.991Z,1.80
2018-10-02T01:09:31.641Z,1.27
2018-10-02T01:12:14.083Z,1.43
2018-10-02T01:14:57.220Z,1.50
2018-10-02T01:17:39.600Z,1.40
2018-10-02T01:20:22.350Z,2.20
2018-10-02T01:23:05.573Z,1.43
2018-10-02T01:25:48.750Z,1.70
2018-10-02T01:28:31.090Z,1.30
2018-10-02T01:31:14.143Z,1.53
2018-10-02T01:33:56.743Z,1.40
2018-10-02T01:36:39.583Z,1.60
2018-10-02T01:39:22.550Z,2.20
2018-10-02T01:42:05.476Z,1.50
2018-10-02T01:44:47.873Z,1.70
2018-10-02T01:47:30.787Z,2.00
2018-10-02T01:50:13.666Z,1.70
2018-10-02T01:52:56.367Z,2.10
2018-10-02T01:55:39.918Z,1.67
2018-10-02T01:58:23.153Z,2.20
2018-10-02T02:01:05.876Z,1.53
2018-10-02T02:03:48.878Z,1.87
2018-10-02T02:06:31.369Z,1.50
2018-10-02T02:09:14.161Z,2.00
2018-10-02T02:11:56.969Z,1.50
2018-10-02T02:14:40.090Z,1.70
2018-10-02T02:17:22.374Z,2.03
2018-10-02T02:20:04.998Z,2.87
2018-10-02T02:22:47.646Z,1.50
2018-10-02T02:25:31.347Z,1.80
2018-10-02T02:28:14.206Z,1.50
2018-10-02T02:30:57.375Z,1.73
2018-10-02T02:33:40.557Z,1.93
2018-10-02T02:36:23.725Z,2.10
2018-10-02T02:39:07.521Z,1.87
2018-10-02T02:41:50.490Z,2.03
2018-10-02T02:44:33.126Z,1.60
2018-10-02T02:47:21.271Z,2.30
2018-10-02T02:50:18.115Z,1.20
2018-10-02T02:53:04.546Z,1.57
2018-10-02T02:55:47.591Z,2.20
2018-10-02T02:58:29.967Z,1.73
2018-10-02T03:01:14.439Z,1.50
2018-10-02T03:03:57.207Z,2.10
2018-10-02T03:06:39.763Z,2.03
2018-10-02T03:09:22.958Z,1.67
2018-10-02T03:12:06.199Z,1.50
2018-10-02T03:14:49.262Z,1.27
2018-10-02T03:17:31.666Z,1.20
2018-10-02T03:20:14.465Z,1.60
2018-10-02T03:22:57.251Z,1.30
2018-10-02T03:25:40.213Z,1.60
2018-10-02T03:28:22.879Z,1.60
2018-10-02T03:31:05.415Z,1.43
2018-10-02T03:33:48.247Z,1.50
2018-10-02T03:36:31.563Z,1.60
2018-10-02T03:39:14.455Z,1.37
2018-10-02T03:41:57.527Z,1.57
2018-10-02T03:44:40.306Z,1.13
2018-10-02T03:47:23.683Z,1.53
2018-10-02T03:50:06.457Z,1.70
2018-10-02T03:52:48.923Z,2.20
2018-10-02T03:55:31.802Z,1.83
2018-10-02T03:58:14.489Z,1.80
2018-10-02T04:00:57.394Z,1.40
2018-10-02T04:03:40.699Z,2.37
2018-10-02T04:06:24.221Z,1.70
2018-10-02T04:09:09.663Z,2.30
2018-10-02T04:11:52.364Z,1.30
2018-10-02T04:14:35.243Z,3.43
2018-10-02T04:17:17.887Z,2.10
2018-10-02T04:20:01.514Z,2.77
2018-10-02T04:22:44.910Z,2.93
2018-10-02T04:25:27.671Z,3.33
2018-10-02T04:28:10.543Z,1.77
2018-10-02T04:30:53.211Z,2.30
2018-10-02T04:33:36.570Z,2.97
2018-10-02T04:36:19.606Z,3.00
2018-10-02T04:39:02.802Z,1.93
2018-10-02T04:41:45.695Z,1.43
2018-10-02T04:44:29.058Z,1.67
2018-10-02T04:47:12.043Z,2.10
2018-10-02T04:49:54.851Z,1.97
2018-10-02T04:52:37.330Z,2.20
2018-10-02T04:55:20.547Z,1.53
2018-10-02T04:58:03.194Z,1.70
2018-10-02T05:00:46.330Z,3.40
2018-10-02T05:03:29.603Z,2.33
2018-10-02T05:06:12.352Z,1.80
2018-10-02T05:08:54.847Z,1.53
2018-10-02T05:11:37.387Z,1.43
2018-10-02T05:14:21.438Z,1.70
2018-10-02T05:17:04.642Z,1.50
2018-10-02T05:19:47.519Z,2.53
2018-10-02T05:22:30.161Z,2.07
2018-10-02T05:25:13.121Z,1.50
2018-10-02T05:27:56.078Z,3.10
2018-10-02T05:30:39.397Z,3.33
2018-10-02T05:33:21.791Z,2.10
2018-10-02T05:36:04.664Z,2.10
2018-10-02T05:38:47.423Z,2.30
2018-10-02T05:41:30.886Z,3.20
2018-10-02T05:44:14.111Z,3.43
2018-10-02T05:46:56.843Z,2.00
2018-10-02T05:49:39.289Z,2.63
2018-10-02T05:52:22.012Z,2.70
2018-10-02T05:55:05.555Z,2.30
2018-10-02T05:57:48.520Z,2.07
2018-10-02T06:00:30.926Z,1.87
2018-10-02T06:03:13.572Z,2.07
2018-10-02T06:05:56.519Z,1.63
2018-10-02T06:08:39.023Z,1.83
2018-10-02T06:11:21.774Z,4.80
2018-10-02T06:14:09.162Z,1.90
2018-10-02T06:16:52.416Z,2.03
2018-10-02T06:19:35.551Z,1.80
2018-10-02T06:22:20.728Z,1.93
2018-10-02T06:25:03.384Z,1.90
2018-10-02T06:27:46.408Z,1.40
2018-10-02T06:30:29.496Z,1.43
2018-10-02T06:33:12.242Z,2.20
2018-10-02T06:35:54.551Z,2.63
2018-10-02T06:38:37.942Z,2.70
2018-10-02T06:41:20.546Z,1.80
2018-10-02T06:44:03.433Z,1.93
2018-10-02T06:46:45.954Z,2.00
2018-10-02T06:49:29.183Z,1.50
2018-10-02T06:52:12.313Z,1.50
2018-10-02T06:54:54.683Z,1.90
2018-10-02T06:57:38.174Z,1.90
2018-10-02T07:00:21.324Z,1.80
2018-10-02T07:03:04.127Z,1.30
2018-10-02T07:05:47.198Z,1.40
2018-10-02T07:08:29.567Z,1.70
2018-10-02T07:11:12.094Z,2.00
2018-10-02T07:13:54.699Z,2.43
2018-10-02T07:16:37.510Z,2.07
2018-10-02T07:19:20.226Z,2.83
2018-10-02T07:22:02.919Z,1.40
2018-10-02T07:24:45.801Z,1.30
2018-10-02T07:27:28.571Z,1.40
2018-10-02T07:30:11.278Z,1.77
2018-10-02T07:32:53.874Z,2.33
2018-10-02T07:35:36.606Z,1.77
2018-10-02T07:38:19.405Z,2.27
2018-10-02T07:41:02.213Z,2.27
2018-10-02T07:43:44.786Z,1.77
2018-10-02T07:46:27.820Z,1.67
2018-10-02T07:49:10.334Z,1.40
2018-10-02T07:51:53.210Z,1.53
2018-10-02T07:54:35.800Z,1.40
2018-10-02T07:57:18.536Z,1.97
2018-10-02T08:00:01.269Z,1.90
2018-10-02T08:02:44.269Z,2.30
2018-10-02T08:05:26.980Z,1.57
2018-10-02T08:08:09.784Z,3.37
2018-10-02T08:10:53.319Z,3.57
2018-10-02T08:13:36.088Z,2.60
2018-10-02T08:16:18.510Z,2.07
2018-10-02T08:19:01.166Z,2.70
2018-10-02T08:21:43.862Z,3.20
2018-10-02T08:24:26.694Z,3.17
2018-10-02T08:27:09.589Z,2.70
2018-10-02T08:29:52.107Z,1.75
2018-10-02T08:32:34.890Z,2.20
2018-10-02T08:35:17.476Z,2.87
2018-10-02T08:38:00.178Z,3.33
2018-10-02T08:40:43.179Z,3.72
2018-10-02T08:43:26.068Z,2.40
2018-10-02T08:46:09.255Z,1.95
2018-10-02T08:48:52.446Z,2.83
2018-10-02T08:51:35.163Z,2.47
2018-10-02T08:54:17.993Z,3.30
2018-10-02T08:57:01.462Z,3.10
2018-10-02T08:59:44.780Z,2.52
2018-10-02T09:02:27.209Z,2.98
2018-10-02T09:05:09.885Z,2.98
2018-10-02T09:07:52.858Z,2.70
2018-10-02T09:10:35.330Z,2.00
2018-10-02T09:13:18.450Z,2.42
2018-10-02T09:16:01.052Z,2.35
2018-10-02T09:18:43.791Z,2.60
2018-10-02T09:21:26.471Z,3.12
2018-10-02T09:24:09.222Z,2.67
2018-10-02T09:26:51.907Z,2.45
2018-10-02T09:29:38.738Z,2.98
2018-10-02T09:32:26.342Z,2.67
2018-10-02T09:35:14.105Z,1.98
2018-10-02T09:38:01.919Z,2.02
2018-10-02T09:40:49.418Z,1.90
2018-10-02T09:43:42.406Z,2.55
2018-10-02T09:46:25.924Z,2.30
2018-10-02T09:49:08.992Z,2.15
2018-10-02T09:51:51.573Z,1.87
2018-10-02T09:54:34.469Z,2.00
2018-10-02T09:57:17.363Z,2.00
2018-10-02T10:00:00.300Z,2.50
2018-10-02T10:02:43.231Z,1.70
2018-10-02T10:05:26.193Z,1.90
2018-10-02T10:08:08.727Z,2.22
2018-10-02T10:10:51.455Z,2.30
2018-10-02T10:13:33.895Z,2.62
2018-10-02T10:16:16.601Z,2.08
2018-10-02T10:18:59.375Z,2.90
2018-10-02T10:21:42.741Z,2.35
2018-10-02T10:24:25.095Z,2.10
2018-10-02T10:27:08.112Z,1.80
2018-10-02T10:29:50.837Z,2.37
2018-10-02T10:32:33.162Z,2.40
2018-10-02T10:35:15.979Z,2.40
2018-10-02T10:37:59.032Z,2.65
2018-10-02T10:40:41.893Z,1.60
2018-10-02T10:43:24.637Z,1.70
2018-10-02T10:46:07.298Z,1.30
2018-10-02T10:48:50.095Z,1.90
2018-10-02T10:51:32.758Z,2.75
2018-10-02T10:54:15.651Z,1.95
2018-10-02T10:56:59.532Z,2.00
2018-10-02T10:59:42.237Z,1.67
2018-10-02T11:02:25.023Z,1.62
2018-10-02T11:05:07.990Z,3.00
2018-10-02T11:07:50.541Z,1.77
2018-10-02T11:10:33.347Z,2.25
2018-10-02T11:13:16.278Z,2.10
2018-10-02T11:15:59.376Z,2.95
2018-10-02T11:18:41.845Z,2.42
2018-10-02T11:21:24.496Z,2.62
2018-10-02T11:24:07.809Z,3.17
2018-10-02T11:26:50.204Z,2.45
2018-10-02T11:29:33.070Z,1.90
2018-10-02T11:32:16.827Z,2.67
2018-10-02T11:34:59.794Z,1.77
2018-10-02T11:37:43.105Z,2.20
2018-10-02T11:40:25.409Z,2.10
2018-10-02T11:43:08.480Z,1.87
2018-10-02T11:45:51.160Z,2.02
2018-10-02T11:48:34.580Z,2.22
2018-10-02T11:51:17.174Z,2.40
2018-10-02T11:53:59.658Z,2.45
2018-10-02T11:56:42.454Z,2.55
2018-10-02T11:59:25.064Z,1.98
2018-10-02T12:02:07.990Z,2.47
2018-10-02T12:04:50.554Z,2.77
2018-10-02T12:07:33.305Z,2.67
2018-10-02T12:10:16.113Z,3.27
2018-10-02T12:12:59.391Z,2.33
2018-10-02T12:15:42.565Z,2.20
2018-10-02T12:18:25.787Z,3.42
2018-10-02T12:21:09.779Z,3.52
2018-10-02T12:23:53.824Z,2.70
2018-10-02T12:26:37.267Z,2.72
2018-10-02T12:29:20.532Z,2.65
2018-10-02T12:32:03.333Z,3.75
2018-10-02T12:34:46.402Z,2.85
2018-10-02T12:37:29.191Z,2.92
2018-10-02T12:40:12.857Z,2.75
2018-10-02T12:42:56.308Z,2.12
2018-10-02T12:45:38.958Z,2.90
2018-10-02T12:48:21.680Z,3.62
2018-10-02T12:51:04.635Z,2.62
2018-10-02T12:53:47.686Z,2.25
2018-10-02T12:56:30.825Z,2.30
2018-10-02T12:59:14.765Z,3.12
2018-10-02T13:01:57.290Z,2.00
2018-10-02T13:04:39.767Z,3.00
2018-10-02T13:07:22.787Z,2.67
2018-10-02T13:10:06.386Z,3.20
2018-10-02T13:12:49.099Z,2.27
2018-10-02T13:15:32.483Z,3.12
2018-10-02T13:18:15.687Z,3.42
2018-10-02T13:20:59.705Z,2.92
2018-10-02T13:23:42.755Z,3.27
2018-10-02T13:26:25.371Z,3.30
2018-10-02T13:29:08.926Z,3.27
2018-10-02T13:31:51.530Z,3.70
2018-10-02T13:34:34.572Z,2.58
2018-10-02T13:37:18.102Z,3.35
2018-10-02T13:40:01.526Z,3.30
2018-10-02T13:42:44.868Z,3.10
2018-10-02T13:45:28.251Z,3.77
2018-10-02T13:48:11.058Z,3.47
2018-10-02T13:50:53.407Z,3.53
2018-10-02T13:53:36.606Z,2.02
2018-10-02T13:56:19.474Z,2.22
2018-10-02T13:59:02.786Z,2.62
2018-10-02T14:01:46.059Z,3.30
2018-10-02T14:04:28.645Z,2.47
2018-10-02T14:07:11.605Z,2.50
2018-10-02T14:09:54.249Z,2.93
2018-10-02T14:12:37.592Z,1.80
2018-10-02T14:15:20.032Z,3.10
2018-10-02T14:18:02.934Z,2.87
2018-10-02T14:20:46.203Z,2.30
2018-10-02T14:23:30.094Z,2.50
2018-10-02T14:26:12.414Z,2.47
2018-10-02T14:28:55.535Z,3.83
2018-10-02T14:31:38.292Z,2.63
2018-10-02T14:34:20.886Z,2.60
2018-10-02T14:37:04.136Z,2.53
2018-10-02T14:39:46.706Z,2.40
2018-10-02T14:42:30.092Z,2.80
2018-10-02T14:45:12.498Z,2.97
2018-10-02T14:47:55.474Z,3.00
2018-10-02T14:50:38.684Z,3.13
2018-10-02T14:53:22.099Z,3.43
2018-10-02T14:56:06.739Z,4.30
2018-10-02T14:58:49.978Z,2.63
2018-10-02T15:01:33.205Z,3.40
2018-10-02T15:04:16.004Z,3.60
2018-10-02T15:07:03.373Z,3.90
2018-10-02T15:09:46.260Z,3.03
2018-10-02T15:12:29.345Z,3.00
2018-10-02T15:15:11.747Z,4.20
2018-10-02T15:17:54.534Z,3.37
2018-10-02T15:20:37.553Z,3.17
2018-10-02T15:23:20.583Z,1.83
2018-10-02T15:26:04.080Z,3.83
2018-10-02T15:28:46.839Z,3.27
2018-10-02T15:31:29.858Z,3.10
2018-10-02T15:34:12.983Z,3.17
2018-10-02T15:36:55.558Z,3.60
2018-10-02T15:39:38.035Z,3.97
2018-10-02T15:42:23.163Z,3.60
2018-10-02T15:45:06.039Z,2.40
2018-10-02T15:47:48.564Z,2.53
2018-10-02T15:50:31.473Z,2.13
2018-10-02T15:53:13.857Z,2.40
2018-10-02T15:55:57.478Z,3.57
2018-10-02T15:58:40.471Z,2.57
2018-10-02T16:01:24.358Z,2.80
2018-10-02T16:04:08.319Z,2.40
2018-10-02T16:06:51.298Z,2.40
2018-10-02T16:09:34.510Z,2.70
2018-10-02T16:12:17.597Z,3.43
2018-10-02T16:15:00.031Z,4.43
2018-10-02T16:17:42.971Z,2.83
2018-10-02T16:20:25.695Z,4.60
2018-10-02T16:23:08.495Z,2.60
2018-10-02T16:25:51.331Z,3.07
2018-10-02T16:28:34.083Z,3.30
2018-10-02T16:31:16.734Z,3.33
2018-10-02T16:33:59.661Z,4.90
2018-10-02T16:36:42.459Z,2.90
2018-10-02T16:39:25.302Z,3.90
2018-10-02T16:42:08.182Z,3.50
2018-10-02T16:44:51.338Z,4.33
2018-10-02T16:47:34.075Z,4.63
2018-10-02T16:50:16.973Z,4.70
2018-10-02T16:53:00.406Z,3.87
2018-10-02T16:55:43.399Z,4.33
2018-10-02T16:58:26.691Z,4.20
2018-10-02T17:01:09.167Z,3.50
2018-10-02T17:03:52.003Z,2.90
2018-10-02T17:06:34.861Z,3.37
2018-10-02T17:09:17.790Z,3.03
2018-10-02T17:12:00.577Z,2.90
2018-10-02T17:14:43.298Z,2.33
2018-10-02T17:17:26.316Z,2.80
2018-10-02T17:20:09.217Z,2.27
2018-10-02T17:22:52.157Z,3.10
2018-10-02T17:25:35.289Z,5.00
2018-10-02T17:28:18.575Z,7.20
2018-10-02T17:31:01.334Z,17.20
2018-10-02T17:33:44.828Z,9.27
2018-10-02T17:36:28.549Z,7.10
2018-10-02T17:39:11.982Z,5.63
2018-10-02T17:41:55.134Z,5.23
2018-10-02T17:44:38.261Z,7.47
2018-10-02T17:47:20.594Z,6.47
2018-10-02T17:50:03.427Z,5.97
2018-10-02T17:52:46.402Z,7.37
2018-10-02T17:55:29.659Z,12.20
2018-10-02T17:58:12.753Z,12.40
2018-10-02T18:00:55.739Z,7.50
2018-10-02T18:03:38.976Z,6.33
2018-10-02T18:06:21.673Z,11.30
2018-10-02T18:09:06.017Z,10.97
2018-10-02T18:11:49.111Z,9.63
2018-10-02T18:14:32.333Z,5.30
2018-10-02T18:17:15.607Z,3.93
2018-10-02T18:19:59.116Z,4.23
2018-10-02T18:22:41.815Z,16.67
2018-10-02T18:25:25.431Z,12.37
2018-10-02T18:28:08.114Z,18.90
2018-10-02T18:30:51.602Z,38.00
2018-10-02T18:33:34.050Z,14.83
2018-10-02T18:36:17.196Z,7.60
2018-10-02T18:39:00.922Z,7.73
2018-10-02T18:41:43.554Z,6.87
2018-10-02T18:44:26.651Z,4.83
2018-10-02T18:47:10.350Z,3.77
2018-10-02T18:49:53.843Z,2.70
2018-10-02T18:52:36.294Z,3.17
2018-10-02T18:55:19.110Z,3.23
2018-10-02T18:58:02.180Z,2.90
2018-10-02T19:00:45.302Z,4.17
2018-10-02T19:03:28.645Z,17.23
2018-10-02T19:06:11.846Z,19.87
2018-10-02T19:09:27.140Z,17.40
2018-10-02T19:12:17.079Z,28.10
2018-10-02T19:14:59.858Z,19.87
2018-10-02T19:17:42.650Z,13.37
2018-10-02T19:20:30.446Z,13.37
2018-10-02T19:23:13.014Z,6.90
2018-10-02T19:26:28.814Z,5.10
2018-10-02T19:29:11.215Z,3.80
2018-10-02T19:32:01.457Z,3.47
2018-10-02T19:34:43.838Z,2.93
2018-10-02T19:37:32.077Z,2.13
2018-10-02T19:40:14.780Z,1.90
2018-10-02T19:42:57.349Z,2.13
2018-10-02T19:45:45.152Z,2.87
2018-10-02T19:48:28.211Z,2.00
2018-10-02T19:51:16.127Z,2.40
2018-10-02T19:53:58.934Z,1.83
2018-10-02T19:56:41.806Z,2.37
2018-10-02T19:59:24.587Z,4.20
2018-10-02T20:02:07.814Z,2.37
2018-10-02T20:04:50.103Z,2.40
2018-10-02T20:07:33.411Z,4.20
2018-10-02T20:10:16.199Z,2.90
2018-10-02T20:12:59.325Z,2.60
2018-10-02T20:15:42.062Z,2.27
2018-10-02T20:18:24.875Z,1.80
2018-10-02T20:21:08.250Z,2.57
2018-10-02T20:23:51.189Z,3.87
2018-10-02T20:26:34.014Z,2.90
2018-10-02T20:29:17.076Z,3.10
2018-10-02T20:31:59.464Z,2.90
2018-10-02T20:34:43.051Z,3.17
2018-10-02T20:37:26.706Z,3.73
2018-10-02T20:40:09.766Z,4.33
2018-10-02T20:42:53.630Z,4.63
2018-10-02T20:45:36.580Z,3.67
2018-10-02T20:48:19.054Z,4.40
2018-10-02T20:51:01.820Z,3.63
2018-10-02T20:53:44.628Z,2.20
2018-10-02T20:56:28.016Z,3.23
2018-10-02T20:59:11.386Z,6.13
2018-10-02T21:01:54.050Z,4.70
2018-10-02T21:04:36.818Z,4.47
2018-10-02T21:07:19.790Z,6.30
2018-10-02T21:10:02.434Z,5.13
2018-10-02T21:12:45.178Z,3.93
2018-10-02T21:15:27.661Z,3.63
2018-10-02T21:18:10.322Z,4.77
2018-10-02T21:20:53.334Z,4.50
2018-10-02T21:23:36.392Z,4.10
2018-10-02T21:26:19.354Z,4.33
2018-10-02T21:29:02.464Z,2.40
2018-10-02T21:31:45.616Z,3.43
2018-10-02T21:34:28.429Z,4.57
2018-10-02T21:37:11.687Z,1.93
2018-10-02T21:39:54.492Z,2.50
2018-10-02T21:42:37.418Z,4.40
2018-10-02T21:45:20.211Z,5.43
2018-10-02T21:48:02.901Z,5.93
2018-10-02T21:50:45.554Z,3.20
2018-10-02T21:53:28.349Z,3.80
2018-10-02T21:56:11.142Z,4.27
2018-10-02T21:58:53.931Z,4.50
2018-10-02T22:01:36.575Z,5.63
2018-10-02T22:04:20.093Z,4.13
2018-10-02T22:07:02.822Z,3.60
2018-10-02T22:09:45.820Z,3.10
2018-10-02T22:12:28.812Z,4.50
2018-10-02T22:15:11.552Z,3.67
2018-10-02T22:17:54.110Z,7.00
2018-10-02T22:20:37.214Z,6.83
2018-10-02T22:23:20.615Z,5.77
2018-10-02T22:26:03.814Z,5.40
2018-10-02T22:28:46.617Z,4.80
2018-10-02T22:31:29.375Z,4.67
2018-10-02T22:34:12.278Z,3.37
2018-10-02T22:36:55.047Z,4.03
2018-10-02T22:39:37.825Z,2.70
2018-10-02T22:42:20.255Z,3.00
2018-10-02T22:45:03.042Z,3.40
2018-10-02T22:47:45.804Z,5.83
2018-10-02T22:50:31.678Z,2.77
2018-10-02T22:53:14.912Z,2.67
2018-10-02T22:55:58.199Z,1.80
2018-10-02T22:58:40.501Z,2.67
2018-10-02T23:01:23.062Z,3.43
2018-10-02T23:04:07.104Z,4.00
2018-10-02T23:06:49.529Z,3.60
2018-10-02T23:09:32.350Z,2.60
2018-10-02T23:12:15.419Z,2.30
2018-10-02T23:14:58.167Z,2.30
2018-10-02T23:17:41.395Z,1.67
2018-10-02T23:20:23.757Z,1.73
2018-10-02T23:23:06.477Z,1.67
2018-10-02T23:25:49.654Z,1.97
2018-10-02T23:28:32.554Z,2.47
2018-10-02T23:31:15.438Z,2.10
2018-10-02T23:33:58.718Z,2.17
2018-10-02T23:36:41.666Z,3.00
2018-10-02T23:39:24.051Z,2.53
2018-10-02T23:42:06.769Z,2.03
2018-10-02T23:44:49.629Z,3.57
2018-10-02T23:47:32.310Z,2.60
2018-10-02T23:50:14.731Z,1.90
2018-10-02T23:52:57.516Z,2.00
2018-10-02T23:55:40.289Z,2.03
2018-10-02T23:58:23.278Z,1.83
